Time,TemperatureF,DewpointF,PressureIn,WindDirection,WindDirectionDegrees,WindSpeedMPH,WindSpeedGustMPH,Humidity,HourlyPrecipIn,Conditions,Clouds,dailyrainin,SoftwareType,DateUTC
2013-02-03 00:00:00,16.4,11.8,30.34,North,0,0.0,0.0,82,0.00,,,0.00,WUHU216HW,2013-02-03 06:00:00,
2013-02-03 00:05:00,16.4,11.8,30.34,North,0,0.0,0.0,82,0.00,,,0.00,WUHU216HW,2013-02-03 06:05:00,
2013-02-03 00:10:00,16.4,11.8,30.33,North,0,0.0,0.0,82,0.00,,,0.00,WUHU216HW,2013-02-03 06:10:00,
2013-02-03 00:15:00,16.6,12.0,30.33,North,0,0.0,0.0,82,0.00,,,0.00,WUHU216HW,2013-02-03 06:15:00,
2013-02-03 00:20:00,16.6,12.0,30.33,North,0,0.0,0.0,82,0.00,,,0.00,WUHU216HW,2013-02-03 06:20:00,
2013-02-03 00:25:00,16.4,11.8,30.33,North,0,0.0,0.0,82,0.00,,,0.00,WUHU216HW,2013-02-03 06:25:00,
2013-02-03 00:30:00,16.4,11.8,30.32,North,0,0.0,0.0,82,0.00,,,0.00,WUHU216HW,2013-02-03 06:30:00,
2013-02-03 00:35:00,16.2,11.9,30.32,North,0,0.0,0.0,83,0.00,,,0.00,WUHU216HW,2013-02-03 06:35:00,
2013-02-03 00:40:00,16.2,11.9,30.32,North,0,0.0,0.0,83,0.00,,,0.00,WUHU216HW,2013-02-03 06:40:00,
2013-02-03 00:45:00,16.0,11.7,30.32,North,0,0.0,0.0,83,0.00,,,0.00,WUHU216HW,2013-02-03 06:45:00,
2013-02-03 00:50:00,16.0,11.7,30.32,North,0,0.0,0.0,83,0.00,,,0.00,WUHU216HW,2013-02-03 06:50:00,
2013-02-03 00:55:00,16.0,11.7,30.32,North,0,0.0,0.0,83,0.00,,,0.00,WUHU216HW,2013-02-03 06:55:00,
2013-02-03 01:00:00,16.0,11.7,30.32,North,0,0.0,0.0,83,0.00,,,0.00,WUHU216HW,2013-02-03 07:00:00,
2013-02-03 01:05:00,16.0,11.7,30.31,North,0,0.0,0.0,83,0.00,,,0.00,WUHU216HW,2013-02-03 07:05:00,
2013-02-03 01:10:00,16.0,11.7,30.31,North,0,0.0,0.0,83,0.00,,,0.00,WUHU216HW,2013-02-03 07:10:00,
2013-02-03 01:15:00,15.8,11.5,30.31,North,0,0.0,0.0,83,0.00,,,0.00,WUHU216HW,2013-02-03 07:15:00,
2013-02-03 01:20:00,15.8,11.5,30.31,North,0,0.0,0.0,83,0.00,,,0.00,WUHU216HW,2013-02-03 07:20:00,
2013-02-03 01:25:00,15.8,11.8,30.30,North,0,0.0,0.0,84,0.00,,,0.00,WUHU216HW,2013-02-03 07:25:00,
2013-02-03 01:30:00,15.8,11.8,30.30,North,0,0.0,0.0,84,0.00,,,0.00,WUHU216HW,2013-02-03 07:30:00,
2013-02-03 01:35:00,15.8,11.8,30.30,North,0,0.0,0.0,84,0.00,,,0.00,WUHU216HW,2013-02-03 07:35:00,
2013-02-03 01:40:00,15.8,11.8,30.30,North,0,0.0,0.0,84,0.00,,,0.00,WUHU216HW,2013-02-03 07:40:00,
2013-02-03 01:45:00,15.8,11.8,30.30,North,0,0.0,0.0,84,0.00,,,0.00,WUHU216HW,2013-02-03 07:45:00,
2013-02-03 01:50:00,15.8,11.8,30.30,North,0,0.0,0.0,84,0.00,,,0.00,WUHU216HW,2013-02-03 07:50:00,
2013-02-03 01:55:00,15.8,11.8,30.29,North,0,0.0,0.0,84,0.00,,,0.00,WUHU216HW,2013-02-03 07:55:00,
2013-02-03 02:00:00,15.8,11.8,30.29,North,0,0.0,0.0,84,0.00,,,0.00,WUHU216HW,2013-02-03 08:00:00,
2013-02-03 02:05:00,15.8,11.8,30.29,North,0,0.0,0.0,84,0.00,,,0.00,WUHU216HW,2013-02-03 08:05:00,
2013-02-03 02:10:00,16.0,12.0,30.29,North,0,0.0,0.0,84,0.00,,,0.00,WUHU216HW,2013-02-03 08:10:00,
2013-02-03 02:15:00,16.2,12.2,30.30,North,0,0.0,0.0,84,0.00,,,0.00,WUHU216HW,2013-02-03 08:15:00,
2013-02-03 02:20:00,16.2,12.2,30.30,North,0,0.0,0.0,84,0.00,,,0.00,WUHU216HW,2013-02-03 08:20:00,
2013-02-03 02:25:00,16.2,12.2,30.30,North,0,0.0,0.0,84,0.00,,,0.00,WUHU216HW,2013-02-03 08:25:00,
2013-02-03 02:30:00,16.4,12.3,30.30,North,0,0.0,0.0,84,0.00,,,0.00,WUHU216HW,2013-02-03 08:30:00,
2013-02-03 02:35:00,16.4,12.3,30.29,North,0,0.0,0.0,84,0.00,,,0.00,WUHU216HW,2013-02-03 08:35:00,
2013-02-03 02:40:00,16.4,12.3,30.29,North,0,0.0,0.0,84,0.00,,,0.00,WUHU216HW,2013-02-03 08:40:00,
2013-02-03 02:45:00,16.2,12.2,30.29,North,0,0.0,0.0,84,0.00,,,0.00,WUHU216HW,2013-02-03 08:45:00,
2013-02-03 02:50:00,16.4,12.3,30.28,North,0,0.0,0.0,84,0.00,,,0.00,WUHU216HW,2013-02-03 08:50:00,
2013-02-03 02:55:00,16.4,12.6,30.28,North,0,0.0,0.0,85,0.00,,,0.00,WUHU216HW,2013-02-03 08:55:00,
2013-02-03 03:00:00,16.2,12.4,30.27,North,0,0.0,0.0,85,0.00,,,0.00,WUHU216HW,2013-02-03 09:00:00,
2013-02-03 03:05:00,16.2,12.4,30.27,North,0,0.0,0.0,85,0.00,,,0.00,WUHU216HW,2013-02-03 09:05:00,
2013-02-03 03:10:00,16.2,12.4,30.27,North,0,0.0,0.0,85,0.00,,,0.00,WUHU216HW,2013-02-03 09:10:00,
2013-02-03 03:15:00,16.4,12.6,30.27,North,0,0.0,0.0,85,0.00,,,0.00,WUHU216HW,2013-02-03 09:15:00,
2013-02-03 03:20:00,16.4,12.9,30.27,North,0,0.0,0.0,86,0.00,,,0.00,WUHU216HW,2013-02-03 09:20:00,
2013-02-03 03:25:00,16.4,12.9,30.27,North,0,0.0,0.0,86,0.00,,,0.00,WUHU216HW,2013-02-03 09:25:00,
2013-02-03 03:30:00,16.4,12.9,30.27,North,0,0.0,0.0,86,0.00,,,0.00,WUHU216HW,2013-02-03 09:30:00,
2013-02-03 03:35:00,16.6,13.0,30.27,North,0,0.0,0.0,86,0.00,,,0.00,WUHU216HW,2013-02-03 09:35:00,
2013-02-03 03:40:00,16.6,13.0,30.27,North,0,0.0,0.0,86,0.00,,,0.00,WUHU216HW,2013-02-03 09:40:00,
2013-02-03 03:45:00,16.7,13.1,30.27,North,0,0.0,0.0,86,0.00,,,0.00,WUHU216HW,2013-02-03 09:45:00,
2013-02-03 03:50:00,16.7,13.1,30.27,North,0,0.0,0.0,86,0.00,,,0.00,WUHU216HW,2013-02-03 09:50:00,
2013-02-03 03:55:00,16.9,13.6,30.27,North,0,0.0,0.0,87,0.00,,,0.00,WUHU216HW,2013-02-03 09:55:00,
2013-02-03 04:00:00,16.9,13.6,30.27,North,0,0.0,0.0,87,0.00,,,0.00,WUHU216HW,2013-02-03 10:00:00,
2013-02-03 04:05:00,17.1,13.8,30.27,North,0,0.0,0.0,87,0.00,,,0.00,WUHU216HW,2013-02-03 10:05:00,
2013-02-03 04:10:00,17.1,13.8,30.27,North,0,0.0,0.0,87,0.00,,,0.00,WUHU216HW,2013-02-03 10:10:00,
2013-02-03 04:15:00,17.3,14.0,30.27,North,0,0.0,0.0,87,0.00,,,0.00,WUHU216HW,2013-02-03 10:15:00,
2013-02-03 04:20:00,17.5,14.1,30.28,North,0,0.0,0.0,87,0.00,,,0.00,WUHU216HW,2013-02-03 10:20:00,
2013-02-03 04:25:00,17.5,14.1,30.28,North,0,0.0,0.0,87,0.00,,,0.00,WUHU216HW,2013-02-03 10:25:00,
2013-02-03 04:30:00,17.6,14.3,30.28,North,0,0.0,0.0,87,0.00,,,0.00,WUHU216HW,2013-02-03 10:30:00,
2013-02-03 04:35:00,17.6,14.3,30.28,North,0,0.0,0.0,87,0.00,,,0.00,WUHU216HW,2013-02-03 10:35:00,
2013-02-03 04:40:00,17.6,14.6,30.28,North,0,0.0,0.0,88,0.00,,,0.00,WUHU216HW,2013-02-03 10:40:00,
2013-02-03 04:45:00,17.6,14.3,30.28,North,0,0.0,0.0,87,0.00,,,0.00,WUHU216HW,2013-02-03 10:45:00,
2013-02-03 04:50:00,17.6,14.3,30.29,North,0,0.0,0.0,87,0.00,,,0.00,WUHU216HW,2013-02-03 10:50:00,
2013-02-03 04:55:00,17.6,14.3,30.29,North,0,0.0,0.0,87,0.00,,,0.00,WUHU216HW,2013-02-03 10:55:00,
2013-02-03 05:00:00,17.8,14.5,30.29,North,0,0.0,0.0,87,0.00,,,0.00,WUHU216HW,2013-02-03 11:00:00,
2013-02-03 05:05:00,17.8,14.8,30.29,North,0,0.0,0.0,88,0.00,,,0.00,WUHU216HW,2013-02-03 11:05:00,
2013-02-03 05:10:00,18.0,14.7,30.29,North,0,0.0,0.0,87,0.00,,,0.00,WUHU216HW,2013-02-03 11:10:00,
2013-02-03 05:15:00,18.0,14.7,30.29,North,0,0.0,0.0,87,0.00,,,0.00,WUHU216HW,2013-02-03 11:15:00,
2013-02-03 05:20:00,18.2,14.9,30.29,North,0,0.0,0.0,87,0.00,,,0.00,WUHU216HW,2013-02-03 11:20:00,
2013-02-03 05:25:00,18.2,14.9,30.29,North,0,0.0,0.0,87,0.00,,,0.00,WUHU216HW,2013-02-03 11:25:00,
2013-02-03 05:30:00,18.4,15.0,30.29,North,0,0.0,0.0,87,0.00,,,0.00,WUHU216HW,2013-02-03 11:30:00,
2013-02-03 05:35:00,18.4,15.3,30.29,North,0,0.0,0.0,88,0.00,,,0.00,WUHU216HW,2013-02-03 11:35:00,
2013-02-03 05:40:00,18.5,15.5,30.29,North,0,0.0,0.0,88,0.00,,,0.00,WUHU216HW,2013-02-03 11:40:00,
2013-02-03 05:45:00,18.7,15.9,30.30,North,0,0.0,0.0,89,0.00,,,0.00,WUHU216HW,2013-02-03 11:45:00,
2013-02-03 05:50:00,18.9,16.4,30.29,North,0,0.0,0.0,90,0.00,,,0.00,WUHU216HW,2013-02-03 11:50:00,
2013-02-03 05:55:00,19.1,16.6,30.29,North,0,0.0,0.0,90,0.00,,,0.00,WUHU216HW,2013-02-03 11:55:00,
2013-02-03 06:00:00,19.3,16.7,30.29,North,0,0.0,0.0,90,0.00,,,0.00,WUHU216HW,2013-02-03 12:00:00,
2013-02-03 06:05:00,19.4,16.9,30.30,North,0,0.0,0.0,90,0.00,,,0.00,WUHU216HW,2013-02-03 12:05:00,
2013-02-03 06:10:00,19.6,17.1,30.30,North,0,0.0,0.0,90,0.00,,,0.00,WUHU216HW,2013-02-03 12:10:00,
2013-02-03 06:15:00,19.8,17.0,30.30,North,0,0.0,0.0,89,0.00,,,0.00,WUHU216HW,2013-02-03 12:15:00,
2013-02-03 06:20:00,19.8,17.0,30.30,North,0,0.0,0.0,89,0.00,,,0.00,WUHU216HW,2013-02-03 12:20:00,
2013-02-03 06:25:00,19.8,17.0,30.30,North,0,0.0,0.0,89,0.00,,,0.00,WUHU216HW,2013-02-03 12:25:00,
2013-02-03 06:30:00,20.0,17.2,30.31,North,0,0.0,0.0,89,0.00,,,0.00,WUHU216HW,2013-02-03 12:30:00,
2013-02-03 06:35:00,20.0,16.9,30.31,North,0,0.0,0.0,88,0.00,,,0.00,WUHU216HW,2013-02-03 12:35:00,
2013-02-03 06:40:00,20.0,16.9,30.31,North,0,0.0,0.0,88,0.00,,,0.00,WUHU216HW,2013-02-03 12:40:00,
2013-02-03 06:45:00,20.2,17.1,30.31,North,0,0.0,0.0,88,0.00,,,0.00,WUHU216HW,2013-02-03 12:45:00,
2013-02-03 06:50:00,20.2,16.8,30.31,North,0,0.0,0.0,87,0.00,,,0.00,WUHU216HW,2013-02-03 12:50:00,
2013-02-03 06:55:00,20.3,17.0,30.31,North,0,0.0,0.0,87,0.00,,,0.00,WUHU216HW,2013-02-03 12:55:00,
2013-02-03 07:00:00,20.3,16.7,30.32,North,0,0.0,0.0,86,0.00,,,0.00,WUHU216HW,2013-02-03 13:00:00,
2013-02-03 07:05:00,20.3,16.7,30.32,North,0,0.0,0.0,86,0.00,,,0.00,WUHU216HW,2013-02-03 13:05:00,
2013-02-03 07:10:00,20.3,16.7,30.32,North,0,0.0,0.0,86,0.00,,,0.00,WUHU216HW,2013-02-03 13:10:00,
2013-02-03 07:15:00,20.3,16.7,30.32,North,0,0.0,0.0,86,0.00,,,0.00,WUHU216HW,2013-02-03 13:15:00,
2013-02-03 07:20:00,20.3,16.7,30.32,North,0,0.0,0.0,86,0.00,,,0.00,WUHU216HW,2013-02-03 13:20:00,
2013-02-03 07:25:00,20.5,16.9,30.33,North,0,0.0,0.0,86,0.00,,,0.00,WUHU216HW,2013-02-03 13:25:00,
2013-02-03 07:30:00,20.5,16.9,30.33,North,0,0.0,0.0,86,0.00,,,0.00,WUHU216HW,2013-02-03 13:30:00,
2013-02-03 07:35:00,20.3,16.2,30.33,North,0,0.0,0.0,84,0.00,,,0.00,WUHU216HW,2013-02-03 13:35:00,
2013-02-03 07:40:00,20.2,15.8,30.34,North,0,0.0,0.0,83,0.00,,,0.00,WUHU216HW,2013-02-03 13:40:00,
2013-02-03 07:45:00,20.2,15.8,30.35,North,0,0.0,0.0,83,0.00,,,0.00,WUHU216HW,2013-02-03 13:45:00,
2013-02-03 07:50:00,20.0,15.3,30.35,North,0,0.0,0.0,82,0.00,,,0.00,WUHU216HW,2013-02-03 13:50:00,
2013-02-03 07:55:00,19.8,15.4,30.35,North,0,0.0,0.0,83,0.00,,,0.00,WUHU216HW,2013-02-03 13:55:00,
2013-02-03 08:00:00,19.8,15.1,30.35,North,0,0.0,0.0,82,0.00,,,0.00,WUHU216HW,2013-02-03 14:00:00,
2013-02-03 08:05:00,19.8,14.9,30.35,North,0,0.0,0.0,81,0.00,,,0.00,WUHU216HW,2013-02-03 14:05:00,
2013-02-03 08:10:00,19.6,14.7,30.35,North,0,0.0,0.0,81,0.00,,,0.00,WUHU216HW,2013-02-03 14:10:00,
2013-02-03 08:15:00,19.6,14.4,30.35,North,0,0.0,0.0,80,0.00,,,0.00,WUHU216HW,2013-02-03 14:15:00,
2013-02-03 08:20:00,19.4,14.0,30.35,North,0,0.0,0.0,79,0.00,,,0.00,WUHU216HW,2013-02-03 14:20:00,
2013-02-03 08:25:00,19.4,13.6,30.36,North,0,0.0,0.0,78,0.00,,,0.00,WUHU216HW,2013-02-03 14:25:00,
2013-02-03 08:30:00,19.1,13.2,30.36,North,0,0.0,0.0,78,0.00,,,0.00,WUHU216HW,2013-02-03 14:30:00,
2013-02-03 08:35:00,18.7,12.9,30.36,North,0,0.0,0.0,78,0.00,,,0.00,WUHU216HW,2013-02-03 14:35:00,
2013-02-03 08:40:00,18.9,13.1,30.36,North,0,0.0,0.0,78,0.00,,,0.00,WUHU216HW,2013-02-03 14:40:00,
2013-02-03 08:45:00,19.1,13.0,30.36,North,0,0.0,0.0,77,0.00,,,0.00,WUHU216HW,2013-02-03 14:45:00,
2013-02-03 08:50:00,19.3,13.2,30.37,North,0,0.0,0.0,77,0.00,,,0.00,WUHU216HW,2013-02-03 14:50:00,
2013-02-03 08:55:00,19.6,13.1,30.37,North,0,0.0,0.0,76,0.00,,,0.00,WUHU216HW,2013-02-03 14:55:00,
2013-02-03 09:00:00,19.8,13.3,30.37,North,0,0.0,0.0,76,0.00,,,0.00,WUHU216HW,2013-02-03 15:00:00,
2013-02-03 09:05:00,19.8,13.3,30.37,North,0,0.0,0.0,76,0.00,,,0.00,WUHU216HW,2013-02-03 15:05:00,
2013-02-03 09:10:00,20.0,13.5,30.37,North,0,0.0,0.0,76,0.00,,,0.00,WUHU216HW,2013-02-03 15:10:00,
2013-02-03 09:15:00,20.0,13.5,30.37,North,0,0.0,0.0,76,0.00,,,0.00,WUHU216HW,2013-02-03 15:15:00,
2013-02-03 09:20:00,19.8,12.8,30.37,North,0,0.0,0.0,74,0.00,,,0.00,WUHU216HW,2013-02-03 15:20:00,
2013-02-03 09:25:00,19.8,13.1,30.38,North,0,0.0,0.0,75,0.00,,,0.00,WUHU216HW,2013-02-03 15:25:00,
2013-02-03 09:30:00,19.8,12.8,30.38,North,0,0.0,0.0,74,0.00,,,0.00,WUHU216HW,2013-02-03 15:30:00,
2013-02-03 09:35:00,20.0,13.0,30.38,North,0,0.0,0.0,74,0.00,,,0.00,WUHU216HW,2013-02-03 15:35:00,
2013-02-03 09:40:00,20.0,13.2,30.38,North,0,0.0,0.0,75,0.00,,,0.00,WUHU216HW,2013-02-03 15:40:00,
2013-02-03 09:45:00,20.0,13.0,30.38,North,0,0.0,0.0,74,0.00,,,0.00,WUHU216HW,2013-02-03 15:45:00,
2013-02-03 09:50:00,19.8,12.4,30.38,North,0,0.0,0.0,73,0.00,,,0.00,WUHU216HW,2013-02-03 15:50:00,
2013-02-03 09:55:00,19.8,12.8,30.38,North,0,0.0,0.0,74,0.00,,,0.00,WUHU216HW,2013-02-03 15:55:00,
2013-02-03 10:00:00,19.8,12.8,30.38,North,0,0.0,0.0,74,0.00,,,0.00,WUHU216HW,2013-02-03 16:00:00,
2013-02-03 10:05:00,20.0,13.2,30.39,North,0,0.0,0.0,75,0.00,,,0.00,WUHU216HW,2013-02-03 16:05:00,
2013-02-03 10:10:00,20.2,13.2,30.39,North,0,0.0,0.0,74,0.00,,,0.00,WUHU216HW,2013-02-03 16:10:00,
2013-02-03 10:15:00,19.8,12.4,30.39,North,0,0.0,0.0,73,0.00,,,0.00,WUHU216HW,2013-02-03 16:15:00,
2013-02-03 10:20:00,19.8,12.4,30.40,North,0,0.0,0.0,73,0.00,,,0.00,WUHU216HW,2013-02-03 16:20:00,
2013-02-03 10:25:00,20.0,13.0,30.40,North,0,0.0,0.0,74,0.00,,,0.00,WUHU216HW,2013-02-03 16:25:00,
2013-02-03 10:30:00,19.8,12.8,30.40,North,0,0.0,0.0,74,0.00,,,0.00,WUHU216HW,2013-02-03 16:30:00,
2013-02-03 10:35:00,19.8,12.2,30.41,North,0,0.0,0.0,72,0.00,,,0.00,WUHU216HW,2013-02-03 16:35:00,
2013-02-03 10:40:00,19.8,12.2,30.41,North,0,0.0,0.0,72,0.00,,,0.00,WUHU216HW,2013-02-03 16:40:00,
2013-02-03 10:45:00,19.8,12.2,30.41,North,0,0.0,0.0,72,0.00,,,0.00,WUHU216HW,2013-02-03 16:45:00,
2013-02-03 10:50:00,20.0,13.0,30.41,North,0,0.0,0.0,74,0.00,,,0.00,WUHU216HW,2013-02-03 16:50:00,
2013-02-03 10:55:00,20.3,12.7,30.41,North,0,0.0,0.0,72,0.00,,,0.00,WUHU216HW,2013-02-03 16:55:00,
2013-02-03 11:00:00,20.3,13.0,30.41,North,0,0.0,0.0,73,0.00,,,0.00,WUHU216HW,2013-02-03 17:00:00,
2013-02-03 11:05:00,20.3,13.0,30.41,North,0,0.0,0.0,73,0.00,,,0.00,WUHU216HW,2013-02-03 17:05:00,
2013-02-03 11:10:00,20.5,12.2,30.41,North,0,0.0,0.0,70,0.00,,,0.00,WUHU216HW,2013-02-03 17:10:00,
2013-02-03 11:15:00,20.5,12.5,30.42,North,0,0.0,0.0,71,0.00,,,0.00,WUHU216HW,2013-02-03 17:15:00,
2013-02-03 11:20:00,20.7,12.7,30.42,North,0,0.0,0.0,71,0.00,,,0.00,WUHU216HW,2013-02-03 17:20:00,
2013-02-03 11:25:00,21.1,13.4,30.42,North,0,0.0,0.0,72,0.00,,,0.00,WUHU216HW,2013-02-03 17:25:00,
2013-02-03 11:30:00,21.2,13.6,30.42,North,0,0.0,0.0,72,0.00,,,0.00,WUHU216HW,2013-02-03 17:30:00,
2013-02-03 11:35:00,21.2,13.2,30.42,North,0,0.0,0.0,71,0.00,,,0.00,WUHU216HW,2013-02-03 17:35:00,
2013-02-03 11:40:00,21.1,13.1,30.42,North,0,0.0,0.0,71,0.00,,,0.00,WUHU216HW,2013-02-03 17:40:00,
2013-02-03 11:45:00,21.2,13.6,30.42,North,0,0.0,0.0,72,0.00,,,0.00,WUHU216HW,2013-02-03 17:45:00,
2013-02-03 11:50:00,21.4,13.8,30.42,North,0,0.0,0.0,72,0.00,,,0.00,WUHU216HW,2013-02-03 17:50:00,
2013-02-03 11:55:00,21.6,14.0,30.42,North,0,0.0,0.0,72,0.00,,,0.00,WUHU216HW,2013-02-03 17:55:00,
2013-02-03 12:00:00,21.8,14.1,30.42,North,0,0.0,0.0,72,0.00,,,0.00,WUHU216HW,2013-02-03 18:00:00,
2013-02-03 12:05:00,21.8,14.1,30.42,North,0,0.0,0.0,72,0.00,,,0.00,WUHU216HW,2013-02-03 18:05:00,
2013-02-03 12:10:00,21.6,13.6,30.41,North,0,0.0,0.0,71,0.00,,,0.00,WUHU216HW,2013-02-03 18:10:00,
2013-02-03 12:15:00,21.6,13.3,30.41,North,0,0.0,0.0,70,0.00,,,0.00,WUHU216HW,2013-02-03 18:15:00,
2013-02-03 12:20:00,21.4,13.1,30.42,North,0,0.0,0.0,70,0.00,,,0.00,WUHU216HW,2013-02-03 18:20:00,
2013-02-03 12:25:00,21.4,12.8,30.42,North,0,0.0,0.0,69,0.00,,,0.00,WUHU216HW,2013-02-03 18:25:00,
2013-02-03 12:30:00,21.2,12.6,30.41,North,0,0.0,0.0,69,0.00,,,0.00,WUHU216HW,2013-02-03 18:30:00,
2013-02-03 12:35:00,21.2,13.0,30.42,North,0,0.0,0.0,70,0.00,,,0.00,WUHU216HW,2013-02-03 18:35:00,
2013-02-03 12:40:00,21.6,13.3,30.42,North,0,0.0,0.0,70,0.00,,,0.00,WUHU216HW,2013-02-03 18:40:00,
2013-02-03 12:45:00,21.6,13.3,30.42,North,0,0.0,0.0,70,0.00,,,0.00,WUHU216HW,2013-02-03 18:45:00,
2013-02-03 12:50:00,22.0,14.0,30.42,North,0,0.0,0.0,71,0.00,,,0.00,WUHU216HW,2013-02-03 18:50:00,
2013-02-03 12:55:00,22.5,14.2,30.41,North,0,0.0,0.0,70,0.00,,,0.00,WUHU216HW,2013-02-03 18:55:00,
2013-02-03 13:00:00,22.9,14.2,30.41,North,0,0.0,0.0,69,0.00,,,0.00,WUHU216HW,2013-02-03 19:00:00,
2013-02-03 13:05:00,23.6,14.9,30.41,North,0,0.0,0.0,69,0.00,,,0.00,WUHU216HW,2013-02-03 19:05:00,
2013-02-03 13:10:00,23.9,14.9,30.41,North,0,0.0,0.0,68,0.00,,,0.00,WUHU216HW,2013-02-03 19:10:00,
2013-02-03 13:15:00,24.1,15.0,30.40,North,0,0.0,0.0,68,0.00,,,0.00,WUHU216HW,2013-02-03 19:15:00,
2013-02-03 13:20:00,24.1,15.4,30.40,North,0,0.0,0.0,69,0.00,,,0.00,WUHU216HW,2013-02-03 19:20:00,
2013-02-03 13:25:00,24.1,15.4,30.41,North,0,0.0,0.0,69,0.00,,,0.00,WUHU216HW,2013-02-03 19:25:00,
2013-02-03 13:30:00,24.1,15.4,30.41,North,0,0.0,0.0,69,0.00,,,0.00,WUHU216HW,2013-02-03 19:30:00,
2013-02-03 13:35:00,24.1,15.8,30.41,North,0,0.0,0.0,70,0.00,,,0.00,WUHU216HW,2013-02-03 19:35:00,
2013-02-03 13:40:00,24.3,15.6,30.41,North,0,0.0,0.0,69,0.00,,,0.00,WUHU216HW,2013-02-03 19:40:00,
2013-02-03 13:45:00,24.1,15.4,30.40,North,0,0.0,0.0,69,0.00,,,0.00,WUHU216HW,2013-02-03 19:45:00,
2013-02-03 13:50:00,24.3,15.6,30.40,North,0,0.0,0.0,69,0.00,,,0.00,WUHU216HW,2013-02-03 19:50:00,
2013-02-03 13:55:00,24.7,15.8,30.40,North,0,0.0,0.0,69,0.00,,,0.00,WUHU216HW,2013-02-03 19:55:00,
2013-02-03 14:00:00,25.0,16.9,30.40,North,0,0.0,0.0,71,0.00,,,0.00,WUHU216HW,2013-02-03 20:00:00,
2013-02-03 14:05:00,25.6,17.1,30.40,North,0,0.0,0.0,70,0.00,,,0.00,WUHU216HW,2013-02-03 20:05:00,
2013-02-03 14:10:00,25.7,17.3,30.40,North,0,0.0,0.0,70,0.00,,,0.00,WUHU216HW,2013-02-03 20:10:00,
2013-02-03 14:15:00,26.1,17.9,30.40,North,0,0.0,0.0,71,0.00,,,0.00,WUHU216HW,2013-02-03 20:15:00,
2013-02-03 14:20:00,26.1,17.9,30.40,North,0,0.0,0.0,71,0.00,,,0.00,WUHU216HW,2013-02-03 20:20:00,
2013-02-03 14:25:00,26.8,17.3,30.39,North,0,0.0,0.0,67,0.00,,,0.00,WUHU216HW,2013-02-03 20:25:00,
2013-02-03 14:30:00,26.3,16.0,30.39,North,0,0.0,0.0,65,0.00,,,0.00,WUHU216HW,2013-02-03 20:30:00,
2013-02-03 14:35:00,26.1,16.2,30.39,North,0,0.0,0.0,66,0.00,,,0.00,WUHU216HW,2013-02-03 20:35:00,
2013-02-03 14:40:00,25.9,16.4,30.39,North,0,0.0,0.0,67,0.00,,,0.00,WUHU216HW,2013-02-03 20:40:00,
2013-02-03 14:45:00,25.7,16.6,30.39,North,0,0.0,0.0,68,0.00,,,0.00,WUHU216HW,2013-02-03 20:45:00,
2013-02-03 14:50:00,25.6,16.7,30.39,North,0,0.0,0.0,69,0.00,,,0.00,WUHU216HW,2013-02-03 20:50:00,
2013-02-03 14:55:00,25.7,17.3,30.39,North,0,0.0,0.0,70,0.00,,,0.00,WUHU216HW,2013-02-03 20:55:00,
2013-02-03 15:00:00,25.9,16.7,30.38,North,0,0.0,0.0,68,0.00,,,0.00,WUHU216HW,2013-02-03 21:00:00,
2013-02-03 15:05:00,25.7,15.8,30.39,North,0,0.0,0.0,66,0.00,,,0.00,WUHU216HW,2013-02-03 21:05:00,
2013-02-03 15:10:00,25.9,16.4,30.38,North,0,0.0,0.0,67,0.00,,,0.00,WUHU216HW,2013-02-03 21:10:00,
2013-02-03 15:15:00,25.7,16.6,30.38,North,0,0.0,0.0,68,0.00,,,0.00,WUHU216HW,2013-02-03 21:15:00,
2013-02-03 15:20:00,25.9,17.1,30.38,North,0,0.0,0.0,69,0.00,,,0.00,WUHU216HW,2013-02-03 21:20:00,
2013-02-03 15:25:00,25.9,17.1,30.38,North,0,0.0,0.0,69,0.00,,,0.00,WUHU216HW,2013-02-03 21:25:00,
2013-02-03 15:30:00,25.9,17.1,30.38,North,0,0.0,0.0,69,0.00,,,0.00,WUHU216HW,2013-02-03 21:30:00,
2013-02-03 15:35:00,25.7,16.2,30.38,North,0,0.0,0.0,67,0.00,,,0.00,WUHU216HW,2013-02-03 21:35:00,
2013-02-03 15:40:00,25.6,16.0,30.38,North,0,0.0,0.0,67,0.00,,,0.00,WUHU216HW,2013-02-03 21:40:00,
2013-02-03 15:45:00,25.4,15.8,30.38,North,0,0.0,0.0,67,0.00,,,0.00,WUHU216HW,2013-02-03 21:45:00,
2013-02-03 15:50:00,25.4,16.6,30.37,North,0,0.0,0.0,69,0.00,,,0.00,WUHU216HW,2013-02-03 21:50:00,
2013-02-03 15:55:00,25.2,16.4,30.37,North,0,0.0,0.0,69,0.00,,,0.00,WUHU216HW,2013-02-03 21:55:00,
2013-02-03 16:00:00,25.2,16.4,30.37,North,0,0.0,0.0,69,0.00,,,0.00,WUHU216HW,2013-02-03 22:00:00,
2013-02-03 16:05:00,25.4,16.9,30.37,North,0,0.0,0.0,70,0.00,,,0.00,WUHU216HW,2013-02-03 22:05:00,
2013-02-03 16:10:00,25.6,17.1,30.37,North,0,0.0,0.0,70,0.00,,,0.00,WUHU216HW,2013-02-03 22:10:00,
2013-02-03 16:15:00,25.6,17.5,30.37,North,0,0.0,0.0,71,0.00,,,0.00,WUHU216HW,2013-02-03 22:15:00,
2013-02-03 16:20:00,25.4,16.9,30.36,North,0,0.0,0.0,70,0.00,,,0.00,WUHU216HW,2013-02-03 22:20:00,
2013-02-03 16:25:00,25.0,16.9,30.36,North,0,0.0,0.0,71,0.00,,,0.00,WUHU216HW,2013-02-03 22:25:00,
2013-02-03 16:30:00,24.8,16.8,30.37,North,0,0.0,0.0,71,0.00,,,0.00,WUHU216HW,2013-02-03 22:30:00,
2013-02-03 16:35:00,24.8,16.8,30.36,North,0,0.0,0.0,71,0.00,,,0.00,WUHU216HW,2013-02-03 22:35:00,
2013-02-03 16:40:00,24.7,16.6,30.36,North,0,0.0,0.0,71,0.00,,,0.00,WUHU216HW,2013-02-03 22:40:00,
2013-02-03 16:45:00,24.5,16.8,30.36,North,0,0.0,0.0,72,0.00,,,0.00,WUHU216HW,2013-02-03 22:45:00,
2013-02-03 16:50:00,24.1,16.4,30.36,North,0,0.0,0.0,72,0.00,,,0.00,WUHU216HW,2013-02-03 22:50:00,
2013-02-03 16:55:00,24.1,16.4,30.36,North,0,0.0,0.0,72,0.00,,,0.00,WUHU216HW,2013-02-03 22:55:00,
2013-02-03 17:00:00,23.9,16.2,30.36,North,0,0.0,0.0,72,0.00,,,0.00,WUHU216HW,2013-02-03 23:00:00,
2013-02-03 17:05:00,23.8,16.4,30.36,North,0,0.0,0.0,73,0.00,,,0.00,WUHU216HW,2013-02-03 23:05:00,
2013-02-03 17:10:00,23.6,16.2,30.35,North,0,0.0,0.0,73,0.00,,,0.00,WUHU216HW,2013-02-03 23:10:00,
2013-02-03 17:15:00,23.6,16.5,30.35,North,0,0.0,0.0,74,0.00,,,0.00,WUHU216HW,2013-02-03 23:15:00,
2013-02-03 17:20:00,23.6,16.5,30.35,North,0,0.0,0.0,74,0.00,,,0.00,WUHU216HW,2013-02-03 23:20:00,
2013-02-03 17:25:00,23.6,16.5,30.35,North,0,0.0,0.0,74,0.00,,,0.00,WUHU216HW,2013-02-03 23:25:00,
2013-02-03 17:30:00,23.4,16.7,30.36,North,0,0.0,0.0,75,0.00,,,0.00,WUHU216HW,2013-02-03 23:30:00,
2013-02-03 17:35:00,23.4,16.7,30.36,North,0,0.0,0.0,75,0.00,,,0.00,WUHU216HW,2013-02-03 23:35:00,
2013-02-03 17:40:00,23.4,16.7,30.36,North,0,0.0,0.0,75,0.00,,,0.00,WUHU216HW,2013-02-03 23:40:00,
2013-02-03 17:45:00,23.4,16.7,30.35,North,0,0.0,0.0,75,0.00,,,0.00,WUHU216HW,2013-02-03 23:45:00,
2013-02-03 17:50:00,23.4,16.7,30.36,North,0,0.0,0.0,75,0.00,,,0.00,WUHU216HW,2013-02-03 23:50:00,
2013-02-03 17:55:00,23.2,16.5,30.36,North,0,0.0,0.0,75,0.00,,,0.00,WUHU216HW,2013-02-03 23:55:00,
2013-02-03 18:00:00,23.2,16.5,30.36,North,0,0.0,0.0,75,0.00,,,0.00,WUHU216HW,2013-02-04 00:00:00,
2013-02-03 18:05:00,23.0,16.6,30.36,North,0,0.0,0.0,76,0.00,,,0.00,WUHU216HW,2013-02-04 00:05:00,
2013-02-03 18:10:00,22.9,16.4,30.37,North,0,0.0,0.0,76,0.00,,,0.00,WUHU216HW,2013-02-04 00:10:00,
2013-02-03 18:15:00,22.7,16.2,30.37,North,0,0.0,0.0,76,0.00,,,0.00,WUHU216HW,2013-02-04 00:15:00,
2013-02-03 18:20:00,22.5,16.0,30.37,North,0,0.0,0.0,76,0.00,,,0.00,WUHU216HW,2013-02-04 00:20:00,
2013-02-03 18:25:00,22.3,15.8,30.37,North,0,0.0,0.0,76,0.00,,,0.00,WUHU216HW,2013-02-04 00:25:00,
2013-02-03 18:30:00,22.3,16.2,30.37,North,0,0.0,0.0,77,0.00,,,0.00,WUHU216HW,2013-02-04 00:30:00,
2013-02-03 18:35:00,22.1,16.0,30.36,North,0,0.0,0.0,77,0.00,,,0.00,WUHU216HW,2013-02-04 00:35:00,
2013-02-03 18:40:00,22.1,16.0,30.36,North,0,0.0,0.0,77,0.00,,,0.00,WUHU216HW,2013-02-04 00:40:00,
2013-02-03 18:45:00,22.3,16.2,30.36,North,0,0.0,0.0,77,0.00,,,0.00,WUHU216HW,2013-02-04 00:45:00,
2013-02-03 18:50:00,22.3,16.2,30.36,North,0,0.0,0.0,77,0.00,,,0.00,WUHU216HW,2013-02-04 00:50:00,
2013-02-03 18:55:00,22.3,16.2,30.36,North,0,0.0,0.0,77,0.00,,,0.00,WUHU216HW,2013-02-04 00:55:00,
2013-02-03 19:00:00,22.3,16.2,30.36,North,0,0.0,0.0,77,0.00,,,0.00,WUHU216HW,2013-02-04 01:00:00,
2013-02-03 19:05:00,22.3,16.2,30.36,North,0,0.0,0.0,77,0.00,,,0.00,WUHU216HW,2013-02-04 01:05:00,
2013-02-03 19:10:00,22.5,16.4,30.36,North,0,0.0,0.0,77,0.00,,,0.00,WUHU216HW,2013-02-04 01:10:00,
2013-02-03 19:15:00,22.3,16.5,30.36,North,0,0.0,0.0,78,0.00,,,0.00,WUHU216HW,2013-02-04 01:15:00,
2013-02-03 19:20:00,22.3,16.2,30.36,North,0,0.0,0.0,77,0.00,,,0.00,WUHU216HW,2013-02-04 01:20:00,
2013-02-03 19:25:00,22.3,16.2,30.36,North,0,0.0,0.0,77,0.00,,,0.00,WUHU216HW,2013-02-04 01:25:00,
2013-02-03 19:30:00,22.1,16.3,30.36,North,0,0.0,0.0,78,0.00,,,0.00,WUHU216HW,2013-02-04 01:30:00,
2013-02-03 19:35:00,22.1,16.3,30.36,North,0,0.0,0.0,78,0.00,,,0.00,WUHU216HW,2013-02-04 01:35:00,
2013-02-03 19:40:00,22.0,16.1,30.36,North,0,0.0,0.0,78,0.00,,,0.00,WUHU216HW,2013-02-04 01:40:00,
2013-02-03 19:45:00,22.0,16.1,30.36,North,0,0.0,0.0,78,0.00,,,0.00,WUHU216HW,2013-02-04 01:45:00,
2013-02-03 19:50:00,22.0,16.1,30.36,North,0,0.0,0.0,78,0.00,,,0.00,WUHU216HW,2013-02-04 01:50:00,
2013-02-03 19:55:00,22.0,16.1,30.36,North,0,0.0,0.0,78,0.00,,,0.00,WUHU216HW,2013-02-04 01:55:00,
2013-02-03 20:00:00,22.0,16.1,30.36,North,0,0.0,0.0,78,0.00,,,0.00,WUHU216HW,2013-02-04 02:00:00,
2013-02-03 20:05:00,22.0,16.1,30.36,North,0,0.0,0.0,78,0.00,,,0.00,WUHU216HW,2013-02-04 02:05:00,
2013-02-03 20:10:00,22.0,16.1,30.37,North,0,0.0,0.0,78,0.00,,,0.00,WUHU216HW,2013-02-04 02:10:00,
2013-02-03 20:15:00,22.0,16.1,30.37,North,0,0.0,0.0,78,0.00,,,0.00,WUHU216HW,2013-02-04 02:15:00,
2013-02-03 20:20:00,22.0,16.1,30.37,North,0,0.0,0.0,78,0.00,,,0.00,WUHU216HW,2013-02-04 02:20:00,
2013-02-03 20:25:00,22.0,16.1,30.36,North,0,0.0,0.0,78,0.00,,,0.00,WUHU216HW,2013-02-04 02:25:00,
2013-02-03 20:30:00,22.0,16.1,30.36,North,0,0.0,0.0,78,0.00,,,0.00,WUHU216HW,2013-02-04 02:30:00,
2013-02-03 20:35:00,21.8,15.9,30.36,North,0,0.0,0.0,78,0.00,,,0.00,WUHU216HW,2013-02-04 02:35:00,
2013-02-03 20:40:00,21.6,15.8,30.36,North,0,0.0,0.0,78,0.00,,,0.00,WUHU216HW,2013-02-04 02:40:00,
2013-02-03 20:45:00,21.6,15.8,30.36,North,0,0.0,0.0,78,0.00,,,0.00,WUHU216HW,2013-02-04 02:45:00,
2013-02-03 20:50:00,21.4,15.9,30.37,North,0,0.0,0.0,79,0.00,,,0.00,WUHU216HW,2013-02-04 02:50:00,
2013-02-03 20:55:00,21.4,15.9,30.37,North,0,0.0,0.0,79,0.00,,,0.00,WUHU216HW,2013-02-04 02:55:00,
2013-02-03 21:00:00,21.4,15.9,30.37,North,0,0.0,0.0,79,0.00,,,0.00,WUHU216HW,2013-02-04 03:00:00,
2013-02-03 21:05:00,21.4,15.9,30.36,North,0,0.0,0.0,79,0.00,,,0.00,WUHU216HW,2013-02-04 03:05:00,
2013-02-03 21:10:00,21.4,15.9,30.36,North,0,0.0,0.0,79,0.00,,,0.00,WUHU216HW,2013-02-04 03:10:00,
2013-02-03 21:15:00,21.4,15.9,30.36,North,0,0.0,0.0,79,0.00,,,0.00,WUHU216HW,2013-02-04 03:15:00,
2013-02-03 21:20:00,21.2,15.8,30.35,North,0,0.0,0.0,79,0.00,,,0.00,WUHU216HW,2013-02-04 03:20:00,
2013-02-03 21:25:00,21.2,15.8,30.35,North,0,0.0,0.0,79,0.00,,,0.00,WUHU216HW,2013-02-04 03:25:00,
2013-02-03 21:30:00,21.1,15.6,30.35,North,0,0.0,0.0,79,0.00,,,0.00,WUHU216HW,2013-02-04 03:30:00,
2013-02-03 21:35:00,20.9,15.4,30.35,North,0,0.0,0.0,79,0.00,,,0.00,WUHU216HW,2013-02-04 03:35:00,
2013-02-03 21:40:00,21.1,15.6,30.34,North,0,0.0,0.0,79,0.00,,,0.00,WUHU216HW,2013-02-04 03:40:00,
2013-02-03 21:45:00,21.2,15.8,30.34,North,0,0.0,0.0,79,0.00,,,0.00,WUHU216HW,2013-02-04 03:45:00,
2013-02-03 21:50:00,21.2,15.8,30.34,North,0,0.0,0.0,79,0.00,,,0.00,WUHU216HW,2013-02-04 03:50:00,
2013-02-03 21:55:00,21.2,15.8,30.34,North,0,0.0,0.0,79,0.00,,,0.00,WUHU216HW,2013-02-04 03:55:00,
2013-02-03 22:00:00,21.2,15.8,30.33,North,0,0.0,0.0,79,0.00,,,0.00,WUHU216HW,2013-02-04 04:00:00,
2013-02-03 22:05:00,21.1,15.6,30.33,North,0,0.0,0.0,79,0.00,,,0.00,WUHU216HW,2013-02-04 04:05:00,
2013-02-03 22:10:00,21.1,15.6,30.33,North,0,0.0,0.0,79,0.00,,,0.00,WUHU216HW,2013-02-04 04:10:00,
2013-02-03 22:15:00,21.1,15.6,30.33,North,0,0.0,0.0,79,0.00,,,0.00,WUHU216HW,2013-02-04 04:15:00,
2013-02-03 22:20:00,21.2,15.8,30.32,North,0,0.0,0.0,79,0.00,,,0.00,WUHU216HW,2013-02-04 04:20:00,
2013-02-03 22:25:00,21.2,15.8,30.32,North,0,0.0,0.0,79,0.00,,,0.00,WUHU216HW,2013-02-04 04:25:00,
2013-02-03 22:30:00,21.4,15.9,30.32,North,0,0.0,0.0,79,0.00,,,0.00,WUHU216HW,2013-02-04 04:30:00,
2013-02-03 22:35:00,21.6,16.1,30.32,North,0,0.0,0.0,79,0.00,,,0.00,WUHU216HW,2013-02-04 04:35:00,
2013-02-03 22:40:00,21.8,16.3,30.32,North,0,0.0,0.0,79,0.00,,,0.00,WUHU216HW,2013-02-04 04:40:00,
2013-02-03 22:45:00,21.8,16.3,30.31,North,0,0.0,0.0,79,0.00,,,0.00,WUHU216HW,2013-02-04 04:45:00,
2013-02-03 22:50:00,21.6,16.1,30.31,North,0,0.0,0.0,79,0.00,,,0.00,WUHU216HW,2013-02-04 04:50:00,
2013-02-03 22:55:00,21.6,16.1,30.30,North,0,0.0,0.0,79,0.00,,,0.00,WUHU216HW,2013-02-04 04:55:00,
2013-02-03 23:00:00,21.4,16.2,30.30,North,0,0.0,0.0,80,0.00,,,0.00,WUHU216HW,2013-02-04 05:00:00,
2013-02-03 23:01:00,21.4,16.2,30.30,North,0,0.0,0.0,80,0.00,,,0.00,WUHU216HW,2013-02-04 05:01:00,
2013-02-03 23:02:00,21.4,16.2,30.30,North,0,0.0,0.0,80,0.00,,,0.00,WUHU216HW,2013-02-04 05:02:00,
2013-02-03 23:07:00,21.6,16.4,30.30,North,0,0.0,0.0,80,0.00,,,0.00,WUHU216HW,2013-02-04 05:07:00,
2013-02-03 23:12:00,21.6,16.4,30.29,North,0,0.0,0.0,80,0.00,,,0.00,WUHU216HW,2013-02-04 05:12:00,
2013-02-03 23:17:00,21.6,16.4,30.29,North,0,0.0,0.0,80,0.00,,,0.00,WUHU216HW,2013-02-04 05:17:00,
2013-02-03 23:22:00,21.8,16.6,30.29,North,0,0.0,0.0,80,0.00,,,0.00,WUHU216HW,2013-02-04 05:22:00,
2013-02-03 23:27:00,22.0,16.7,30.29,North,0,0.0,0.0,80,0.00,,,0.00,WUHU216HW,2013-02-04 05:27:00,
2013-02-03 23:32:00,22.0,16.7,30.28,North,0,0.0,0.0,80,0.00,,,0.00,WUHU216HW,2013-02-04 05:32:00,
2013-02-03 23:37:00,22.0,16.7,30.28,North,0,0.0,0.0,80,0.00,,,0.00,WUHU216HW,2013-02-04 05:37:00,
2013-02-03 23:42:00,22.1,16.9,30.28,North,0,0.0,0.0,80,0.00,,,0.00,WUHU216HW,2013-02-04 05:42:00,
2013-02-03 23:47:00,22.5,17.3,30.27,North,0,0.0,0.0,80,0.00,,,0.00,WUHU216HW,2013-02-04 05:47:00,
2013-02-03 23:52:00,22.5,17.3,30.27,North,0,0.0,0.0,80,0.00,,,0.00,WUHU216HW,2013-02-04 05:52:00,
2013-02-03 23:57:00,22.7,17.5,30.27,North,0,0.0,0.0,80,0.00,,,0.00,WUHU216HW,2013-02-04 05:57:00,